Sunnyside, Canada
Current Conditions -  °F | °C
As of 1:00 PM on Monday 22 Dec 2014 (Local Time) from CYYT Reporting Station
Overcast Overcast  
Wind Chill: 17°   Ceiling: 1300
Heat Index: 27°   Visibility: 15mi
Dew Point: 23°   Wind: 9mph
Humidity: 86%   Direction: 40°NE
Pressure: 30.37"   Gusts: 18mph
Location:  47.87°N, 53.93°W
Report Text: CYYT 221600Z 04008G16KT 15SM OVC013 M03/M05 A3037 RMK SC8 SLP292
Loading
Personal Weather Stations






























Interactive Weather Map New forecast layout! Learn more

10-Day Weather Forecast

Advertisements
Track Severe Weather on mobile